Time;durP1;ratioP1;P1;durP2;ratioP2;P2;SDS_P1;SDS_P2;PMS_P1;PMS_P2;Temp;Humidity;BMP_temperature;BMP_pressure;BME280_temperature;BME280_humidity;BME280_pressure;Samples;Min_cycle;Max_cycle;Signal;HPM_P1;HPM_P2
2023/11/09 00:02:45;;;;;;;14.20;7.80;;;;;;;;;;103817;1288;545571;-71
2023/11/09 00:06:24;;;;;;;13.70;7.00;;;;;;;;;;103552;1291;544622;-69
2023/11/09 00:10:05;;;;;;;11.30;6.10;;;;;;;;;;103565;1295;545711;-70
2023/11/09 00:13:39;;;;;;;11.50;6.00;;;;;;;;;;103634;1291;545871;-72
2023/11/09 00:17:19;;;;;;;11.50;5.90;;;;;;;;;;103340;1294;544782;-70
2023/11/09 00:20:54;;;;;;;11.50;5.30;;;;;;;;;;103716;1295;544727;-70
2023/11/09 00:24:28;;;;;;;12.20;6.20;;;;;;;;;;103842;1289;545031;-70
2023/11/09 00:28:09;;;;;;;10.70;5.00;;;;;;;;;;103613;1290;545458;-70
2023/11/09 00:31:47;;;;;;;10.30;4.70;;;;;;;;;;103596;1289;545310;-69
2023/11/09 00:35:24;;;;;;;11.00;4.90;;;;;;;;;;103770;1289;544816;-69
2023/11/09 00:39:03;;;;;;;9.20;4.50;;;;;;;;;;104031;1285;545042;-69
2023/11/09 00:42:39;;;;;;;9.10;4.30;;;;;;;;;;103661;1292;545642;-69
2023/11/09 00:46:17;;;;;;;10.60;4.50;;;;;;;;;;103674;1290;544746;-70
2023/11/09 00:49:54;;;;;;;9.10;3.70;;;;;;;;;;103843;1289;546015;-69
2023/11/09 00:53:32;;;;;;;13.40;3.70;;;;;;;;;;103811;1289;544756;-68
2023/11/09 00:57:09;;;;;;;11.40;4.50;;;;;;;;;;103691;1290;545064;-69
2023/11/09 01:00:46;;;;;;;9.50;3.70;;;;;;;;;;103649;1289;544887;-69
2023/11/09 01:04:24;;;;;;;9.90;4.30;;;;;;;;;;103802;1289;545860;-69
2023/11/09 01:08:01;;;;;;;9.70;3.60;;;;;;;;;;103627;1291;544885;-69
2023/11/09 01:11:40;;;;;;;9.50;3.10;;;;;;;;;;103588;1290;545021;-69
2023/11/09 01:15:16;;;;;;;10.30;3.30;;;;;;;;;;103834;1289;545115;-71
2023/11/09 01:18:55;;;;;;;8.10;3.30;;;;;;;;;;103621;1298;546278;-69
2023/11/09 01:22:31;;;;;;;8.20;3.20;;;;;;;;;;103774;1292;545178;-71
2023/11/09 01:26:13;;;;;;;8.50;3.20;;;;;;;;;;103694;1292;545451;-71
2023/11/09 01:29:46;;;;;;;9.00;3.60;;;;;;;;;;103698;1292;544732;-68
2023/11/09 01:33:24;;;;;;;8.70;3.50;;;;;;;;;;103700;1290;545515;-70
2023/11/09 01:37:01;;;;;;;10.60;4.40;;;;;;;;;;104163;1283;545147;-70
2023/11/09 01:40:39;;;;;;;9.60;4.70;;;;;;;;;;103855;1290;545454;-70
2023/11/09 01:44:16;;;;;;;9.70;4.20;;;;;;;;;;103729;1291;545437;-69
2023/11/09 01:47:54;;;;;;;10.30;3.80;;;;;;;;;;103684;1291;545181;-69
2023/11/09 01:51:31;;;;;;;9.50;4.20;;;;;;;;;;103701;1289;544935;-68
2023/11/09 01:55:09;;;;;;;9.20;4.30;;;;;;;;;;103613;1292;545060;-69
2023/11/09 01:58:47;;;;;;;11.10;4.60;;;;;;;;;;104200;1288;545596;-69
2023/11/09 02:02:27;;;;;;;10.60;4.50;;;;;;;;;;103934;1286;544803;-69
2023/11/09 02:06:00;;;;;;;8.40;4.40;;;;;;;;;;103544;1293;545127;-69
2023/11/09 02:09:38;;;;;;;8.70;4.00;;;;;;;;;;103694;1301;545055;-70
2023/11/09 02:13:16;;;;;;;10.30;4.30;;;;;;;;;;103617;1291;545467;-69
2023/11/09 02:16:53;;;;;;;11.80;4.70;;;;;;;;;;103624;1292;545484;-70
2023/11/09 02:20:31;;;;;;;12.40;4.80;;;;;;;;;;103742;1292;544724;-70
2023/11/09 02:24:10;;;;;;;11.00;4.60;;;;;;;;;;103706;1291;544880;-69
2023/11/09 02:27:45;;;;;;;9.70;3.80;;;;;;;;;;104063;1287;544860;-70
2023/11/09 02:31:23;;;;;;;10.10;3.90;;;;;;;;;;103618;1292;545447;-69
2023/11/09 02:35:01;;;;;;;10.70;4.40;;;;;;;;;;103842;1289;544803;-69
2023/11/09 02:38:38;;;;;;;9.80;4.20;;;;;;;;;;103659;1294;545049;-69
2023/11/09 02:42:15;;;;;;;8.60;3.90;;;;;;;;;;103731;1288;545945;-70
2023/11/09 02:45:57;;;;;;;12.20;3.90;;;;;;;;;;103717;1293;545197;-70
2023/11/09 02:49:32;;;;;;;7.90;3.40;;;;;;;;;;103678;1292;545350;-69
2023/11/09 02:53:08;;;;;;;8.50;3.60;;;;;;;;;;103591;1292;544986;-70
2023/11/09 02:56:46;;;;;;;10.30;4.00;;;;;;;;;;103719;1292;545942;-68
2023/11/09 03:00:22;;;;;;;8.70;3.70;;;;;;;;;;103751;1291;545431;-69
2023/11/09 03:04:00;;;;;;;9.00;3.70;;;;;;;;;;103604;1292;545027;-70
2023/11/09 03:07:38;;;;;;;7.30;3.00;;;;;;;;;;103745;1291;545243;-70
2023/11/09 03:11:19;;;;;;;9.10;3.40;;;;;;;;;;103736;1289;545451;-71
2023/11/09 03:14:53;;;;;;;9.20;4.00;;;;;;;;;;103612;1289;545354;-72
2023/11/09 03:18:26;;;;;;;7.80;3.70;;;;;;;;;;103856;1292;545114;-70
2023/11/09 03:22:08;;;;;;;8.90;3.80;;;;;;;;;;103876;1292;545000;-69
2023/11/09 03:25:45;;;;;;;7.30;3.20;;;;;;;;;;103711;1291;544727;-70
2023/11/09 03:29:23;;;;;;;8.70;3.30;;;;;;;;;;103393;1298;545267;-70
2023/11/09 03:33:00;;;;;;;9.10;3.60;;;;;;;;;;103875;1292;544846;-69
2023/11/09 03:36:43;;;;;;;9.60;3.70;;;;;;;;;;103493;1292;548368;-69
2023/11/09 03:40:15;;;;;;;10.10;3.50;;;;;;;;;;104346;1294;544777;-69
2023/11/09 03:43:56;;;;;;;7.40;3.40;;;;;;;;;;103721;1289;545630;-69
2023/11/09 03:47:30;;;;;;;7.10;3.50;;;;;;;;;;103657;1290;545033;-70
2023/11/09 03:51:07;;;;;;;9.20;4.20;;;;;;;;;;103755;1291;545439;-70
2023/11/09 03:54:45;;;;;;;10.80;4.80;;;;;;;;;;103643;1288;546069;-69
2023/11/09 03:58:22;;;;;;;10.60;4.90;;;;;;;;;;103999;1288;545372;-69
2023/11/09 04:01:59;;;;;;;10.10;5.00;;;;;;;;;;103548;1289;545637;-69
2023/11/09 04:05:37;;;;;;;9.20;5.20;;;;;;;;;;103977;1289;545022;-69
2023/11/09 04:09:14;;;;;;;10.40;5.00;;;;;;;;;;104010;1292;545885;-69
2023/11/09 04:12:52;;;;;;;10.20;4.80;;;;;;;;;;103698;1292;545691;-71
2023/11/09 04:16:30;;;;;;;9.10;3.60;;;;;;;;;;103645;1289;545056;-69
2023/11/09 04:20:07;;;;;;;7.40;3.00;;;;;;;;;;103441;1297;544725;-70
2023/11/09 04:23:44;;;;;;;8.20;3.40;;;;;;;;;;104335;1282;545162;-69
2023/11/09 04:27:21;;;;;;;8.70;3.30;;;;;;;;;;103714;1288;545241;-69
2023/11/09 04:31:00;;;;;;;9.60;3.70;;;;;;;;;;103796;1294;545734;-70
2023/11/09 04:34:37;;;;;;;9.60;3.50;;;;;;;;;;103605;1291;545030;-69
2023/11/09 04:38:15;;;;;;;8.00;3.50;;;;;;;;;;103841;1289;545500;-71
2023/11/09 04:41:52;;;;;;;9.70;3.50;;;;;;;;;;103520;1292;545032;-69
2023/11/09 04:45:26;;;;;;;8.60;3.30;;;;;;;;;;103795;1289;546618;-69
2023/11/09 04:49:06;;;;;;;9.20;3.80;;;;;;;;;;103749;1289;545752;-69
2023/11/09 04:52:44;;;;;;;19.90;8.60;;;;;;;;;;103753;1289;544805;-69
2023/11/09 04:58:44;;;;;;;12.00;6.00;;;;;;;;;;103633;1288;544973;-72
2023/11/09 05:07:14;;;;;;;49.70;22.10;;;;;;;;;;103789;1289;545033;-69
2023/11/09 05:10:53;;;;;;;30.80;15.40;;;;;;;;;;103791;1292;544761;-70
2023/11/09 05:14:34;;;;;;;21.20;9.60;;;;;;;;;;103637;1292;548129;-69
2023/11/09 05:18:06;;;;;;;16.10;7.80;;;;;;;;;;103781;1290;545010;-69
2023/11/09 05:21:40;;;;;;;12.00;4.80;;;;;;;;;;104273;1282;545110;-69
2023/11/09 05:25:21;;;;;;;10.50;5.20;;;;;;;;;;104087;1289;545262;-69
2023/11/09 05:28:59;;;;;;;10.70;4.80;;;;;;;;;;103728;1292;545426;-69
2023/11/09 05:32:36;;;;;;;10.30;4.60;;;;;;;;;;103567;1289;545750;-68
2023/11/09 05:36:16;;;;;;;10.10;4.50;;;;;;;;;;104030;1289;546130;-70
2023/11/09 05:39:51;;;;;;;11.80;4.90;;;;;;;;;;103548;1292;546400;-70
2023/11/09 05:43:29;;;;;;;11.00;4.90;;;;;;;;;;103631;1292;544825;-69
2023/11/09 05:47:06;;;;;;;12.50;6.70;;;;;;;;;;103537;1292;545413;-69
2023/11/09 05:50:43;;;;;;;15.50;6.70;;;;;;;;;;103784;1289;544852;-69
2023/11/09 05:54:21;;;;;;;10.90;5.10;;;;;;;;;;103784;1288;544796;-69
2023/11/09 05:57:58;;;;;;;10.20;4.10;;;;;;;;;;103676;1289;545362;-69
2023/11/09 06:01:37;;;;;;;11.70;4.20;;;;;;;;;;103605;1289;545012;-69
2023/11/09 06:05:14;;;;;;;10.40;4.60;;;;;;;;;;103568;1292;545084;-71
2023/11/09 06:08:51;;;;;;;9.60;4.00;;;;;;;;;;103880;1294;544904;-71
2023/11/09 06:12:24;;;;;;;9.40;3.60;;;;;;;;;;103650;1292;544778;-69
2023/11/09 06:16:07;;;;;;;17.00;6.60;;;;;;;;;;103779;1289;544771;-68
2023/11/09 06:19:44;;;;;;;16.80;7.00;;;;;;;;;;104634;1285;544941;-69
2023/11/09 06:23:20;;;;;;;19.40;8.00;;;;;;;;;;103689;1291;545027;-69
2023/11/09 06:27:00;;;;;;;14.10;6.00;;;;;;;;;;103648;1288;546077;-69
2023/11/09 06:30:41;;;;;;;12.40;5.00;;;;;;;;;;103307;1294;548166;-69
2023/11/09 06:34:16;;;;;;;9.50;3.50;;;;;;;;;;103714;1289;544955;-70
2023/11/09 06:37:51;;;;;;;9.30;4.20;;;;;;;;;;103523;1290;545065;-69
2023/11/09 06:41:29;;;;;;;7.80;2.40;;;;;;;;;;103775;1289;544627;-69
2023/11/09 06:45:06;;;;;;;8.70;2.70;;;;;;;;;;103652;1292;544812;-67
2023/11/09 06:48:43;;;;;;;9.80;3.30;;;;;;;;;;103675;1292;545325;-68
2023/11/09 06:52:21;;;;;;;9.30;4.00;;;;;;;;;;103931;1287;545685;-69
2023/11/09 06:55:58;;;;;;;8.30;3.50;;;;;;;;;;103659;1290;544818;-70
2023/11/09 06:59:35;;;;;;;8.40;2.90;;;;;;;;;;103635;1295;544634;-71
2023/11/09 07:03:13;;;;;;;10.10;3.10;;;;;;;;;;103630;1291;545953;-68
2023/11/09 07:06:50;;;;;;;13.70;4.70;;;;;;;;;;103649;1289;544871;-70
2023/11/09 07:10:27;;;;;;;16.60;5.80;;;;;;;;;;103693;1300;545344;-69
2023/11/09 07:14:06;;;;;;;9.00;3.90;;;;;;;;;;104132;1286;544757;-68
2023/11/09 07:17:42;;;;;;;12.20;4.40;;;;;;;;;;103656;1289;544738;-69
2023/11/09 07:21:21;;;;;;;15.30;4.60;;;;;;;;;;103615;1289;546000;-68
2023/11/09 07:24:58;;;;;;;21.50;9.80;;;;;;;;;;103720;1289;545169;-69
2023/11/09 07:28:35;;;;;;;10.20;3.80;;;;;;;;;;103744;1292;545073;-69
2023/11/09 07:32:12;;;;;;;13.90;5.30;;;;;;;;;;104222;1283;544912;-68
2023/11/09 07:35:49;;;;;;;23.90;9.30;;;;;;;;;;103765;1291;545674;-69
2023/11/09 07:39:27;;;;;;;17.80;6.40;;;;;;;;;;103826;1292;545034;-68
2023/11/09 07:43:04;;;;;;;11.70;4.00;;;;;;;;;;103600;1291;545095;-68
2023/11/09 07:46:42;;;;;;;13.70;4.80;;;;;;;;;;103722;1291;545033;-69
2023/11/09 07:50:20;;;;;;;14.80;4.90;;;;;;;;;;103669;1292;545269;-69
2023/11/09 07:53:57;;;;;;;12.10;5.00;;;;;;;;;;103649;1292;545051;-71
2023/11/09 07:57:35;;;;;;;9.30;2.80;;;;;;;;;;103650;1294;544960;-69
2023/11/09 08:01:12;;;;;;;8.80;2.30;;;;;;;;;;103640;1293;544844;-69
2023/11/09 08:04:49;;;;;;;10.00;2.90;;;;;;;;;;103887;1288;544929;-69
2023/11/09 08:08:27;;;;;;;11.00;3.00;;;;;;;;;;103828;1290;546191;-68
2023/11/09 08:12:05;;;;;;;10.30;3.70;;;;;;;;;;104526;1285;545439;-69
2023/11/09 08:42:55;;;;;;;8.50;2.90;;;;;;;;;;103611;1295;545404;-69
2023/11/09 08:46:04;;;;;;;5.60;1.70;;;;;;;;;;103854;1292;545024;-69
2023/11/09 08:49:46;;;;;;;14.90;4.40;;;;;;;;;;103655;1289;547849;-69
2023/11/09 08:53:18;;;;;;;14.90;5.40;;;;;;;;;;103621;1291;545672;-71
2023/11/09 08:56:56;;;;;;;8.20;3.30;;;;;;;;;;103826;1288;545012;-69
2023/11/09 09:00:34;;;;;;;8.20;3.30;;;;;;;;;;103685;1291;546310;-68
2023/11/09 09:04:11;;;;;;;5.80;1.80;;;;;;;;;;104607;1283;544990;-69
2023/11/09 09:07:49;;;;;;;6.30;1.80;;;;;;;;;;103813;1300;544736;-71
2023/11/09 09:11:26;;;;;;;7.00;2.00;;;;;;;;;;103724;1289;544862;-70
2023/11/09 09:15:12;;;;;;;6.60;1.80;;;;;;;;;;103701;1292;545605;-70
2023/11/09 09:18:41;;;;;;;10.50;3.40;;;;;;;;;;103715;1289;544954;-69
2023/11/09 09:22:19;;;;;;;4.80;1.70;;;;;;;;;;103728;1292;544733;-70
2023/11/09 09:25:55;;;;;;;6.50;2.00;;;;;;;;;;103458;1295;545069;-70
2023/11/09 09:29:35;;;;;;;5.10;1.60;;;;;;;;;;103731;1289;546042;-68
2023/11/09 09:33:10;;;;;;;6.30;2.40;;;;;;;;;;103871;1289;545753;-69
2023/11/09 09:36:49;;;;;;;6.90;2.00;;;;;;;;;;103626;1294;545448;-70
2023/11/09 09:40:32;;;;;;;5.30;1.50;;;;;;;;;;103636;1291;544709;-71
2023/11/09 09:44:03;;;;;;;4.70;1.30;;;;;;;;;;103540;1293;544933;-69
2023/11/09 09:47:41;;;;;;;5.30;1.60;;;;;;;;;;103670;1302;544961;-68
2023/11/09 09:51:21;;;;;;;6.20;1.30;;;;;;;;;;103664;1292;545381;-68
2023/11/09 09:54:55;;;;;;;5.60;1.40;;;;;;;;;;103776;1289;544918;-69
2023/11/09 09:58:34;;;;;;;6.10;1.60;;;;;;;;;;103709;1302;545057;-69
2023/11/09 10:02:13;;;;;;;5.50;1.60;;;;;;;;;;103792;1289;544787;-69
2023/11/09 10:05:47;;;;;;;5.00;1.60;;;;;;;;;;103647;1294;544964;-69
2023/11/09 10:09:25;;;;;;;5.00;1.70;;;;;;;;;;103715;1292;545307;-69
2023/11/09 10:12:59;;;;;;;6.80;1.80;;;;;;;;;;103639;1291;544787;-69
2023/11/09 10:16:41;;;;;;;5.00;1.60;;;;;;;;;;103785;1289;544785;-70
2023/11/09 10:20:17;;;;;;;6.50;2.00;;;;;;;;;;103821;1292;545340;-70
2023/11/09 10:23:54;;;;;;;6.70;2.00;;;;;;;;;;103962;1289;544836;-71
2023/11/09 10:27:33;;;;;;;6.30;2.10;;;;;;;;;;103742;1290;545856;-70
2023/11/09 10:31:27;;;;;;;8.80;2.90;;;;;;;;;;103536;1293;544615;-69
2023/11/09 10:34:50;;;;;;;6.30;2.00;;;;;;;;;;103676;1291;546170;-70
2023/11/09 10:38:25;;;;;;;4.10;1.50;;;;;;;;;;103739;1292;545752;-69
2023/11/09 10:42:04;;;;;;;4.00;1.40;;;;;;;;;;104413;1282;544956;-69
2023/11/09 10:45:44;;;;;;;9.30;2.30;;;;;;;;;;103869;1288;545636;-70
2023/11/09 10:49:17;;;;;;;10.90;3.80;;;;;;;;;;103618;1291;545592;-69
2023/11/09 10:52:56;;;;;;;15.30;3.80;;;;;;;;;;103709;1291;545241;-69
2023/11/09 10:56:32;;;;;;;7.40;2.30;;;;;;;;;;103788;1289;546224;-69
2023/11/09 11:00:25;;;;;;;11.10;3.00;;;;;;;;;;103777;1291;544924;-69
2023/11/09 11:04:09;;;;;;;10.80;2.60;;;;;;;;;;103737;1289;548014;-74
2023/11/09 11:07:30;;;;;;;9.90;2.70;;;;;;;;;;104563;1282;544759;-70
2023/11/09 11:11:04;;;;;;;16.90;5.60;;;;;;;;;;103881;1292;545042;-69
2023/11/09 11:14:42;;;;;;;13.00;3.70;;;;;;;;;;103812;1289;545700;-70
2023/11/09 11:18:26;;;;;;;14.60;4.10;;;;;;;;;;103949;1286;545673;-69
2023/11/09 11:22:24;;;;;;;14.20;2.90;;;;;;;;;;103571;1294;544986;-68
2023/11/09 11:25:36;;;;;;;7.30;3.30;;;;;;;;;;103800;1289;544881;-68
2023/11/09 11:29:10;;;;;;;8.90;2.30;;;;;;;;;;104089;1285;545469;-69
2023/11/09 11:32:47;;;;;;;15.20;3.50;;;;;;;;;;103647;1300;544975;-69
2023/11/09 11:36:26;;;;;;;17.10;2.90;;;;;;;;;;103690;1295;545020;-69
2023/11/09 11:40:08;;;;;;;7.30;1.90;;;;;;;;;;104022;1285;544824;-71
2023/11/09 11:43:50;;;;;;;8.10;1.80;;;;;;;;;;103778;1290;545418;-70
2023/11/09 11:47:17;;;;;;;7.80;1.90;;;;;;;;;;103918;1288;546155;-71
2023/11/09 11:51:06;;;;;;;5.40;2.00;;;;;;;;;;104295;1285;544801;-70
2023/11/09 11:54:31;;;;;;;7.90;2.70;;;;;;;;;;103660;1297;545116;-69
2023/11/09 11:58:11;;;;;;;7.00;2.30;;;;;;;;;;103776;1291;545373;-70
2023/11/09 12:01:50;;;;;;;7.10;1.80;;;;;;;;;;103824;1288;544866;-70
2023/11/09 12:05:30;;;;;;;9.20;2.60;;;;;;;;;;103780;1299;544956;-70
2023/11/09 12:09:07;;;;;;;6.90;2.00;;;;;;;;;;103760;1290;545744;-70
2023/11/09 12:12:39;;;;;;;6.60;1.80;;;;;;;;;;103726;1291;545122;-70
2023/11/09 12:16:15;;;;;;;9.40;2.70;;;;;;;;;;103783;1292;545907;-69
2023/11/09 12:19:54;;;;;;;7.90;2.20;;;;;;;;;;103691;1289;544835;-70
2023/11/09 12:23:33;;;;;;;6.40;2.50;;;;;;;;;;103658;1291;545063;-70
2023/11/09 12:27:10;;;;;;;8.90;2.80;;;;;;;;;;103707;1292;544941;-68
2023/11/09 12:30:48;;;;;;;8.30;2.50;;;;;;;;;;103625;1290;545507;-70
2023/11/09 12:34:23;;;;;;;7.70;2.60;;;;;;;;;;103494;1293;546213;-70
2023/11/09 12:38:01;;;;;;;6.30;2.20;;;;;;;;;;104266;1285;545929;-69
2023/11/09 12:41:39;;;;;;;9.40;2.20;;;;;;;;;;103798;1292;544909;-70
2023/11/09 12:45:17;;;;;;;7.30;1.70;;;;;;;;;;103745;1292;545181;-70
2023/11/09 12:48:56;;;;;;;7.00;1.90;;;;;;;;;;103798;1289;545067;-70
2023/11/09 12:52:28;;;;;;;9.00;2.30;;;;;;;;;;104036;1286;545131;-71
2023/11/09 12:56:10;;;;;;;5.70;2.10;;;;;;;;;;103662;1291;544905;-70
2023/11/09 12:59:46;;;;;;;5.10;1.90;;;;;;;;;;104576;1282;545581;-70
2023/11/09 13:03:24;;;;;;;12.70;3.30;;;;;;;;;;103662;1295;545914;-69
2023/11/09 13:07:00;;;;;;;7.60;2.80;;;;;;;;;;103672;1289;544927;-71
2023/11/09 13:10:40;;;;;;;7.50;3.00;;;;;;;;;;103612;1292;544911;-69
2023/11/09 13:14:17;;;;;;;13.40;3.20;;;;;;;;;;103833;1288;545223;-71
2023/11/09 13:18:07;;;;;;;9.60;2.60;;;;;;;;;;103623;1295;547769;-71
2023/11/09 13:21:30;;;;;;;7.70;2.90;;;;;;;;;;103647;1291;544801;-70
2023/11/09 13:25:07;;;;;;;7.30;2.80;;;;;;;;;;103743;1289;545674;-71
2023/11/09 13:28:47;;;;;;;11.40;4.00;;;;;;;;;;103998;1289;545171;-70
2023/11/09 13:32:27;;;;;;;8.80;3.00;;;;;;;;;;103383;1292;545669;-71
2023/11/09 13:36:04;;;;;;;10.40;3.80;;;;;;;;;;103475;1292;545401;-71
2023/11/09 13:40:07;;;;;;;27.60;16.80;;;;;;;;;;103772;1289;544994;-70
2023/11/09 13:43:34;;;;;;;28.60;16.50;;;;;;;;;;103875;1290;544902;-70
2023/11/09 13:46:59;;;;;;;69.50;47.60;;;;;;;;;;103519;1290;544960;-69
2023/11/09 13:50:31;;;;;;;77.90;51.00;;;;;;;;;;103798;1289;545104;-69
2023/11/09 13:57:47;;;;;;;20.60;10.20;;;;;;;;;;103238;1295;544960;-70
2023/11/09 14:01:28;;;;;;;24.60;13.30;;;;;;;;;;103681;1290;545769;-69
2023/11/09 14:08:42;;;;;;;63.40;36.70;;;;;;;;;;104706;1285;544942;-70
2023/11/09 14:12:37;;;;;;;65.50;32.40;;;;;;;;;;103816;1291;544981;-69
2023/11/09 14:16:02;;;;;;;18.60;6.90;;;;;;;;;;103617;1291;545099;-71
2023/11/09 14:19:35;;;;;;;11.00;4.40;;;;;;;;;;104034;1289;544765;-70
2023/11/09 14:23:07;;;;;;;11.30;3.70;;;;;;;;;;104180;1282;545703;-69
2023/11/09 14:26:47;;;;;;;24.30;4.20;;;;;;;;;;103645;1292;545545;-70
2023/11/09 14:30:28;;;;;;;10.00;3.40;;;;;;;;;;103691;1301;544782;-70
2023/11/09 14:34:00;;;;;;;9.60;3.60;;;;;;;;;;103709;1289;544876;-70
2023/11/09 14:37:37;;;;;;;11.20;5.20;;;;;;;;;;104448;1283;544955;-69
2023/11/09 14:41:17;;;;;;;16.00;7.40;;;;;;;;;;104313;1286;544922;-70
2023/11/09 14:44:53;;;;;;;19.90;9.60;;;;;;;;;;103505;1292;545146;-69
2023/11/09 14:48:30;;;;;;;19.60;8.40;;;;;;;;;;103764;1295;544778;-69
2023/11/09 14:52:20;;;;;;;18.60;9.60;;;;;;;;;;103731;1292;545737;-70
2023/11/09 14:55:53;;;;;;;15.50;8.20;;;;;;;;;;103627;1289;545272;-70
2023/11/09 14:59:22;;;;;;;13.20;5.90;;;;;;;;;;103380;1298;545773;-70
2023/11/09 15:03:00;;;;;;;12.80;6.70;;;;;;;;;;103625;1291;545517;-70
2023/11/09 15:06:37;;;;;;;11.20;5.70;;;;;;;;;;103612;1291;545014;-70
2023/11/09 15:10:14;;;;;;;20.40;11.30;;;;;;;;;;103844;1288;545478;-70
2023/11/09 15:13:54;;;;;;;19.70;10.30;;;;;;;;;;103841;1295;544976;-70
2023/11/09 15:17:30;;;;;;;25.30;14.00;;;;;;;;;;104107;1283;546006;-70
2023/11/09 15:21:04;;;;;;;21.00;10.80;;;;;;;;;;103970;1288;544720;-70
2023/11/09 15:24:44;;;;;;;16.70;9.30;;;;;;;;;;103605;1292;545013;-70
2023/11/09 15:28:23;;;;;;;17.50;10.20;;;;;;;;;;103700;1294;545731;-68
2023/11/09 15:32:01;;;;;;;20.50;12.00;;;;;;;;;;103588;1290;544850;-69
2023/11/09 15:35:36;;;;;;;19.30;11.10;;;;;;;;;;103729;1289;545094;-70
2023/11/09 15:39:19;;;;;;;17.90;9.70;;;;;;;;;;103471;1295;545146;-70
2023/11/09 15:42:55;;;;;;;16.70;9.80;;;;;;;;;;103532;1289;544947;-69
2023/11/09 15:46:29;;;;;;;19.70;10.70;;;;;;;;;;103673;1291;545393;-69
2023/11/09 15:50:06;;;;;;;19.20;11.10;;;;;;;;;;103677;1292;544977;-70
2023/11/09 15:53:44;;;;;;;18.80;10.60;;;;;;;;;;103730;1292;544974;-67
2023/11/09 15:57:26;;;;;;;18.70;9.90;;;;;;;;;;104232;1283;548052;-69
2023/11/09 16:00:59;;;;;;;19.40;11.10;;;;;;;;;;103728;1289;544920;-69
2023/11/09 16:04:37;;;;;;;17.90;10.20;;;;;;;;;;103798;1289;545253;-69
2023/11/09 16:08:14;;;;;;;19.30;10.70;;;;;;;;;;103821;1292;545519;-68
2023/11/09 16:11:51;;;;;;;17.90;11.30;;;;;;;;;;103707;1292;545508;-69
2023/11/09 16:15:29;;;;;;;19.60;10.90;;;;;;;;;;103682;1290;545001;-68
2023/11/09 16:19:07;;;;;;;16.70;10.10;;;;;;;;;;103698;1302;545907;-71
2023/11/09 16:22:44;;;;;;;17.60;9.60;;;;;;;;;;103751;1295;545152;-70
2023/11/09 16:26:25;;;;;;;19.90;10.30;;;;;;;;;;103679;1291;544845;-69
2023/11/09 16:29:54;;;;;;;22.40;12.30;;;;;;;;;;104607;1286;544831;-71
2023/11/09 16:33:36;;;;;;;27.40;14.90;;;;;;;;;;103538;1292;545160;-69
2023/11/09 16:37:13;;;;;;;25.00;14.10;;;;;;;;;;103383;1291;545063;-69
2023/11/09 16:40:51;;;;;;;22.50;12.40;;;;;;;;;;103608;1293;545121;-69
2023/11/09 16:44:31;;;;;;;17.50;9.80;;;;;;;;;;103660;1289;546126;-69
2023/11/09 16:48:06;;;;;;;18.60;10.70;;;;;;;;;;103431;1293;544736;-69
2023/11/09 16:51:42;;;;;;;18.60;11.00;;;;;;;;;;103685;1291;544877;-68
2023/11/09 16:55:21;;;;;;;14.90;8.30;;;;;;;;;;103864;1289;546017;-69
2023/11/09 16:58:58;;;;;;;14.80;8.50;;;;;;;;;;103693;1295;545660;-70
2023/11/09 17:02:41;;;;;;;15.70;9.70;;;;;;;;;;103780;1295;546353;-70
2023/11/09 17:06:13;;;;;;;15.10;9.20;;;;;;;;;;103823;1292;545260;-69
2023/11/09 17:09:50;;;;;;;14.20;7.50;;;;;;;;;;103761;1291;544839;-70
2023/11/09 17:13:28;;;;;;;13.80;7.50;;;;;;;;;;103673;1295;544747;-70
2023/11/09 17:17:10;;;;;;;15.10;8.80;;;;;;;;;;103642;1298;544956;-70
2023/11/09 17:20:43;;;;;;;16.80;10.40;;;;;;;;;;103494;1303;545286;-70
2023/11/09 17:24:21;;;;;;;18.90;10.80;;;;;;;;;;103504;1291;544752;-69
2023/11/09 17:27:58;;;;;;;23.80;12.80;;;;;;;;;;103735;1289;544854;-70
2023/11/09 17:31:35;;;;;;;32.90;14.60;;;;;;;;;;103669;1289;545492;-70
2023/11/09 17:35:13;;;;;;;26.30;12.60;;;;;;;;;;103931;1289;545597;-69
2023/11/09 17:38:50;;;;;;;22.40;10.30;;;;;;;;;;103533;1289;545414;-70
2023/11/09 17:42:29;;;;;;;23.50;9.80;;;;;;;;;;103538;1292;544925;-70
2023/11/09 17:46:05;;;;;;;19.60;8.90;;;;;;;;;;103818;1288;545393;-68
2023/11/09 17:49:48;;;;;;;13.40;7.10;;;;;;;;;;103526;1305;544974;-70
2023/11/09 17:53:20;;;;;;;14.40;7.30;;;;;;;;;;103619;1292;544774;-71
2023/11/09 17:56:58;;;;;;;13.20;7.10;;;;;;;;;;103936;1288;544757;-69
2023/11/09 18:00:35;;;;;;;14.00;7.40;;;;;;;;;;103452;1303;545039;-69
2023/11/09 18:04:13;;;;;;;13.10;7.30;;;;;;;;;;103682;1290;544837;-68
2023/11/09 18:07:51;;;;;;;11.70;7.00;;;;;;;;;;103624;1291;544973;-71
2023/11/09 18:11:31;;;;;;;12.90;7.00;;;;;;;;;;103594;1292;544931;-69
2023/11/09 18:15:07;;;;;;;14.00;7.90;;;;;;;;;;103558;1289;545349;-70
2023/11/09 18:18:43;;;;;;;15.60;8.80;;;;;;;;;;103729;1291;546320;-69
2023/11/09 18:22:16;;;;;;;16.60;9.00;;;;;;;;;;103726;1291;544978;-69
2023/11/09 18:25:57;;;;;;;15.70;8.60;;;;;;;;;;103879;1286;545574;-70
2023/11/09 18:29:54;;;;;;;15.50;9.20;;;;;;;;;;103835;1292;547752;-71
2023/11/09 18:33:12;;;;;;;17.20;10.10;;;;;;;;;;104106;1282;544827;-69
2023/11/09 18:36:52;;;;;;;16.80;9.60;;;;;;;;;;103506;1294;544886;-69
2023/11/09 18:40:47;;;;;;;14.40;8.00;;;;;;;;;;103635;1292;548219;-72
2023/11/09 18:44:08;;;;;;;14.50;7.70;;;;;;;;;;104152;1286;545580;-68
2023/11/09 18:47:43;;;;;;;14.20;7.30;;;;;;;;;;103684;1291;545127;-70
2023/11/09 18:51:19;;;;;;;13.20;6.70;;;;;;;;;;103664;1302;544927;-69
2023/11/09 18:55:00;;;;;;;11.90;6.70;;;;;;;;;;103628;1288;545299;-71
2023/11/09 18:58:36;;;;;;;13.60;7.20;;;;;;;;;;103646;1292;545053;-72
2023/11/09 19:02:12;;;;;;;12.50;7.30;;;;;;;;;;103562;1292;545077;-70
2023/11/09 19:05:50;;;;;;;13.30;7.40;;;;;;;;;;103749;1290;545480;-71
2023/11/09 19:09:27;;;;;;;14.60;7.10;;;;;;;;;;103673;1291;544823;-70
2023/11/09 19:13:05;;;;;;;17.60;9.10;;;;;;;;;;103848;1289;544866;-69
2023/11/09 19:16:43;;;;;;;19.60;10.80;;;;;;;;;;103459;1291;544822;-69
2023/11/09 19:20:20;;;;;;;22.80;11.80;;;;;;;;;;103969;1286;545611;-69
2023/11/09 19:23:52;;;;;;;20.60;11.20;;;;;;;;;;103645;1288;546036;-71
2023/11/09 19:27:34;;;;;;;17.80;9.30;;;;;;;;;;103691;1289;544802;-70
2023/11/09 19:31:12;;;;;;;14.90;8.00;;;;;;;;;;103743;1290;544975;-69
2023/11/09 19:35:11;;;;;;;14.30;7.70;;;;;;;;;;103885;1292;548016;-73
2023/11/09 19:38:26;;;;;;;15.30;8.80;;;;;;;;;;103799;1288;544838;-71
2023/11/09 19:42:01;;;;;;;15.60;7.40;;;;;;;;;;104383;1296;545429;-70
2023/11/09 19:45:43;;;;;;;12.60;6.90;;;;;;;;;;103555;1289;544990;-69
2023/11/09 19:49:19;;;;;;;11.70;6.80;;;;;;;;;;104421;1282;544982;-70
2023/11/09 19:53:04;;;;;;;12.10;6.00;;;;;;;;;;103494;1297;548251;-69
2023/11/09 19:56:35;;;;;;;10.80;5.90;;;;;;;;;;103627;1295;545073;-69
2023/11/09 20:00:32;;;;;;;11.10;5.80;;;;;;;;;;103400;1298;547963;-71
2023/11/09 20:03:51;;;;;;;10.30;6.70;;;;;;;;;;103541;1292;545179;-72
2023/11/09 20:07:27;;;;;;;12.60;7.00;;;;;;;;;;103711;1292;545195;-69
2023/11/09 20:11:04;;;;;;;12.60;6.60;;;;;;;;;;103824;1289;545435;-68
2023/11/09 20:14:42;;;;;;;12.20;6.00;;;;;;;;;;103693;1288;544806;-70
2023/11/09 20:18:19;;;;;;;12.80;7.50;;;;;;;;;;103728;1292;545090;-69
2023/11/09 20:22:00;;;;;;;12.40;6.90;;;;;;;;;;103480;1292;545673;-69
2023/11/09 20:25:37;;;;;;;12.10;7.10;;;;;;;;;;103725;1295;545150;-69
2023/11/09 20:29:11;;;;;;;11.60;6.40;;;;;;;;;;103827;1288;545170;-69
2023/11/09 20:32:49;;;;;;;13.10;7.00;;;;;;;;;;103601;1292;545542;-69
2023/11/09 20:36:26;;;;;;;16.80;7.80;;;;;;;;;;103531;1292;544966;-69
2023/11/09 20:40:05;;;;;;;15.30;7.30;;;;;;;;;;103539;1295;544737;-69
2023/11/09 20:43:43;;;;;;;13.10;7.60;;;;;;;;;;103527;1291;545111;-68
2023/11/09 20:47:19;;;;;;;13.00;7.30;;;;;;;;;;103911;1288;545162;-69
2023/11/09 20:50:57;;;;;;;13.50;7.40;;;;;;;;;;103582;1289;545060;-69
2023/11/09 20:54:36;;;;;;;13.10;7.40;;;;;;;;;;103697;1292;544939;-71
2023/11/09 20:58:12;;;;;;;12.00;6.70;;;;;;;;;;103287;1297;545451;-70
2023/11/09 21:01:48;;;;;;;20.80;11.70;;;;;;;;;;103599;1294;545628;-70
2023/11/09 21:05:26;;;;;;;11.40;6.20;;;;;;;;;;103663;1290;544744;-69
2023/11/09 21:09:04;;;;;;;10.90;5.90;;;;;;;;;;103803;1288;545638;-69
2023/11/09 21:12:43;;;;;;;12.90;7.30;;;;;;;;;;103456;1304;545256;-68
2023/11/09 21:16:18;;;;;;;10.30;5.80;;;;;;;;;;103961;1290;544797;-69
2023/11/09 21:19:56;;;;;;;10.50;6.20;;;;;;;;;;103964;1290;545072;-70
2023/11/09 21:23:33;;;;;;;10.80;7.00;;;;;;;;;;103639;1294;544993;-70
2023/11/09 21:27:12;;;;;;;10.80;7.00;;;;;;;;;;103574;1292;545673;-68
2023/11/09 21:30:48;;;;;;;13.70;7.00;;;;;;;;;;103673;1289;544922;-70